sensor_id;sensor_type;location;lat;lon;timestamp;P1;P2;P0
55518;PMS5003;41724;51.176;-0.708;2024-01-15T00:02:16;9;8;
55518;PMS5003;41724;51.176;-0.708;2024-01-15T00:04:45;10;9;
55518;PMS5003;41724;51.176;-0.708;2024-01-15T00:07:13;7;5;
55518;PMS5003;41724;51.176;-0.708;2024-01-15T00:09:40;7;7;
55518;PMS5003;41724;51.176;-0.708;2024-01-15T00:12:08;4;4;
55518;PMS5003;41724;51.176;-0.708;2024-01-15T00:14:35;6;6;
55518;PMS5003;41724;51.176;-0.708;2024-01-15T00:17:02;8;7;
55518;PMS5003;41724;51.176;-0.708;2024-01-15T00:19:29;5;5;
55518;PMS5003;41724;51.176;-0.708;2024-01-15T00:21:57;5;5;
55518;PMS5003;41724;51.176;-0.708;2024-01-15T00:24:24;5;5;
55518;PMS5003;41724;51.176;-0.708;2024-01-15T00:26:51;4;4;
55518;PMS5003;41724;51.176;-0.708;2024-01-15T00:29:19;4;4;
55518;PMS5003;41724;51.176;-0.708;2024-01-15T00:31:46;5;5;
55518;PMS5003;41724;51.176;-0.708;2024-01-15T00:34:13;5;5;
55518;PMS5003;41724;51.176;-0.708;2024-01-15T00:36:41;5;5;
55518;PMS5003;41724;51.176;-0.708;2024-01-15T00:39:08;5;5;
55518;PMS5003;41724;51.176;-0.708;2024-01-15T00:41:35;7;5;
55518;PMS5003;41724;51.176;-0.708;2024-01-15T00:44:03;7;5;
55518;PMS5003;41724;51.176;-0.708;2024-01-15T00:46:31;5;5;
55518;PMS5003;41724;51.176;-0.708;2024-01-15T00:48:58;9;9;
55518;PMS5003;41724;51.176;-0.708;2024-01-15T00:51:25;9;9;
55518;PMS5003;41724;51.176;-0.708;2024-01-15T00:53:53;20;19;
55518;PMS5003;41724;51.176;-0.708;2024-01-15T00:56:20;34;29;
55518;PMS5003;41724;51.176;-0.708;2024-01-15T00:58:48;23;22;
55518;PMS5003;41724;51.176;-0.708;2024-01-15T01:01:15;14;13;
55518;PMS5003;41724;51.176;-0.708;2024-01-15T01:03:42;10;9;
55518;PMS5003;41724;51.176;-0.708;2024-01-15T01:06:10;11;10;
55518;PMS5003;41724;51.176;-0.708;2024-01-15T01:08:38;7;7;
55518;PMS5003;41724;51.176;-0.708;2024-01-15T01:11:05;6;6;
55518;PMS5003;41724;51.176;-0.708;2024-01-15T01:13:33;4;4;
55518;PMS5003;41724;51.176;-0.708;2024-01-15T01:16:00;4;4;
55518;PMS5003;41724;51.176;-0.708;2024-01-15T01:18:27;4;4;
55518;PMS5003;41724;51.176;-0.708;2024-01-15T01:20:54;8;7;
55518;PMS5003;41724;51.176;-0.708;2024-01-15T01:23:22;10;10;
55518;PMS5003;41724;51.176;-0.708;2024-01-15T01:25:49;9;8;
55518;PMS5003;41724;51.176;-0.708;2024-01-15T01:28:16;10;10;
55518;PMS5003;41724;51.176;-0.708;2024-01-15T01:30:44;15;14;
55518;PMS5003;41724;51.176;-0.708;2024-01-15T01:33:11;15;14;
55518;PMS5003;41724;51.176;-0.708;2024-01-15T01:35:38;19;16;
55518;PMS5003;41724;51.176;-0.708;2024-01-15T01:38:06;19;18;
55518;PMS5003;41724;51.176;-0.708;2024-01-15T01:40:33;15;14;
55518;PMS5003;41724;51.176;-0.708;2024-01-15T01:43:02;8;7;
55518;PMS5003;41724;51.176;-0.708;2024-01-15T01:45:30;11;9;
55518;PMS5003;41724;51.176;-0.708;2024-01-15T01:47:57;9;9;
55518;PMS5003;41724;51.176;-0.708;2024-01-15T01:50:24;7;7;
55518;PMS5003;41724;51.176;-0.708;2024-01-15T01:52:52;7;6;
55518;PMS5003;41724;51.176;-0.708;2024-01-15T01:55:19;6;6;
55518;PMS5003;41724;51.176;-0.708;2024-01-15T01:57:48;3;3;
55518;PMS5003;41724;51.176;-0.708;2024-01-15T02:00:17;4;4;
55518;PMS5003;41724;51.176;-0.708;2024-01-15T02:02:44;7;7;
55518;PMS5003;41724;51.176;-0.708;2024-01-15T02:05:11;7;6;
55518;PMS5003;41724;51.176;-0.708;2024-01-15T02:07:40;7;6;
55518;PMS5003;41724;51.176;-0.708;2024-01-15T02:10:08;4;4;
55518;PMS5003;41724;51.176;-0.708;2024-01-15T02:12:35;4;4;
55518;PMS5003;41724;51.176;-0.708;2024-01-15T02:15:03;4;3;
55518;PMS5003;41724;51.176;-0.708;2024-01-15T02:17:30;4;4;
55518;PMS5003;41724;51.176;-0.708;2024-01-15T02:19:57;3;3;
55518;PMS5003;41724;51.176;-0.708;2024-01-15T02:22:25;7;6;
55518;PMS5003;41724;51.176;-0.708;2024-01-15T02:24:52;4;4;
55518;PMS5003;41724;51.176;-0.708;2024-01-15T02:27:19;3;3;
55518;PMS5003;41724;51.176;-0.708;2024-01-15T02:29:47;3;3;
55518;PMS5003;41724;51.176;-0.708;2024-01-15T02:32:15;3;3;
55518;PMS5003;41724;51.176;-0.708;2024-01-15T02:34:42;4;3;
55518;PMS5003;41724;51.176;-0.708;2024-01-15T02:37:10;6;4;
55518;PMS5003;41724;51.176;-0.708;2024-01-15T02:39:37;4;4;
55518;PMS5003;41724;51.176;-0.708;2024-01-15T02:42:05;6;4;
55518;PMS5003;41724;51.176;-0.708;2024-01-15T02:44:32;3;3;
55518;PMS5003;41724;51.176;-0.708;2024-01-15T02:46:59;4;3;
55518;PMS5003;41724;51.176;-0.708;2024-01-15T02:49:27;6;4;
55518;PMS5003;41724;51.176;-0.708;2024-01-15T02:51:54;3;3;
55518;PMS5003;41724;51.176;-0.708;2024-01-15T02:54:21;4;4;
55518;PMS5003;41724;51.176;-0.708;2024-01-15T02:56:49;3;3;
55518;PMS5003;41724;51.176;-0.708;2024-01-15T02:59:16;4;3;
55518;PMS5003;41724;51.176;-0.708;2024-01-15T03:01:43;4;4;
55518;PMS5003;41724;51.176;-0.708;2024-01-15T03:04:11;4;4;
55518;PMS5003;41724;51.176;-0.708;2024-01-15T03:06:38;4;3;
55518;PMS5003;41724;51.176;-0.708;2024-01-15T03:09:05;4;3;
55518;PMS5003;41724;51.176;-0.708;2024-01-15T03:11:37;3;3;
55518;PMS5003;41724;51.176;-0.708;2024-01-15T03:14:04;3;3;
55518;PMS5003;41724;51.176;-0.708;2024-01-15T03:16:32;4;3;
55518;PMS5003;41724;51.176;-0.708;2024-01-15T03:18:59;4;4;
55518;PMS5003;41724;51.176;-0.708;2024-01-15T03:21:27;3;3;
55518;PMS5003;41724;51.176;-0.708;2024-01-15T03:23:54;3;3;
55518;PMS5003;41724;51.176;-0.708;2024-01-15T03:26:21;3;3;
55518;PMS5003;41724;51.176;-0.708;2024-01-15T03:28:49;3;2;
55518;PMS5003;41724;51.176;-0.708;2024-01-15T03:31:16;3;3;
55518;PMS5003;41724;51.176;-0.708;2024-01-15T03:33:43;3;3;
55518;PMS5003;41724;51.176;-0.708;2024-01-15T03:36:10;3;3;
55518;PMS5003;41724;51.176;-0.708;2024-01-15T03:38:39;2;2;
55518;PMS5003;41724;51.176;-0.708;2024-01-15T03:41:07;3;3;
55518;PMS5003;41724;51.176;-0.708;2024-01-15T03:43:34;4;3;
55518;PMS5003;41724;51.176;-0.708;2024-01-15T03:46:02;2;2;
55518;PMS5003;41724;51.176;-0.708;2024-01-15T03:48:29;3;3;
55518;PMS5003;41724;51.176;-0.708;2024-01-15T03:50:56;3;3;
55518;PMS5003;41724;51.176;-0.708;2024-01-15T03:53:24;3;3;
55518;PMS5003;41724;51.176;-0.708;2024-01-15T03:55:51;4;3;
55518;PMS5003;41724;51.176;-0.708;2024-01-15T03:58:19;3;3;
55518;PMS5003;41724;51.176;-0.708;2024-01-15T04:00:46;3;2;
55518;PMS5003;41724;51.176;-0.708;2024-01-15T04:03:13;3;3;
55518;PMS5003;41724;51.176;-0.708;2024-01-15T04:05:41;3;3;
55518;PMS5003;41724;51.176;-0.708;2024-01-15T04:08:08;4;3;
55518;PMS5003;41724;51.176;-0.708;2024-01-15T04:10:36;2;2;
55518;PMS5003;41724;51.176;-0.708;2024-01-15T04:13:03;2;2;
55518;PMS5003;41724;51.176;-0.708;2024-01-15T04:15:30;2;2;
55518;PMS5003;41724;51.176;-0.708;2024-01-15T04:17:58;2;2;
55518;PMS5003;41724;51.176;-0.708;2024-01-15T04:20:25;2;2;
55518;PMS5003;41724;51.176;-0.708;2024-01-15T04:22:53;3;3;
55518;PMS5003;41724;51.176;-0.708;2024-01-15T04:25:20;3;3;
55518;PMS5003;41724;51.176;-0.708;2024-01-15T04:27:47;3;2;
55518;PMS5003;41724;51.176;-0.708;2024-01-15T04:30:15;3;2;
55518;PMS5003;41724;51.176;-0.708;2024-01-15T04:32:42;2;2;
55518;PMS5003;41724;51.176;-0.708;2024-01-15T04:35:10;3;3;
55518;PMS5003;41724;51.176;-0.708;2024-01-15T04:37:37;3;3;
55518;PMS5003;41724;51.176;-0.708;2024-01-15T04:40:05;3;3;
55518;PMS5003;41724;51.176;-0.708;2024-01-15T04:42:33;2;2;
55518;PMS5003;41724;51.176;-0.708;2024-01-15T04:45:00;3;3;
55518;PMS5003;41724;51.176;-0.708;2024-01-15T04:47:27;2;2;
55518;PMS5003;41724;51.176;-0.708;2024-01-15T04:49:55;2;2;
55518;PMS5003;41724;51.176;-0.708;2024-01-15T04:52:22;2;2;
55518;PMS5003;41724;51.176;-0.708;2024-01-15T04:54:49;2;2;
55518;PMS5003;41724;51.176;-0.708;2024-01-15T04:57:17;2;2;
55518;PMS5003;41724;51.176;-0.708;2024-01-15T04:59:44;2;1;
55518;PMS5003;41724;51.176;-0.708;2024-01-15T05:02:12;2;2;
55518;PMS5003;41724;51.176;-0.708;2024-01-15T05:04:39;3;2;
55518;PMS5003;41724;51.176;-0.708;2024-01-15T05:07:06;2;2;
55518;PMS5003;41724;51.176;-0.708;2024-01-15T05:09:34;2;2;
55518;PMS5003;41724;51.176;-0.708;2024-01-15T05:12:01;2;2;
55518;PMS5003;41724;51.176;-0.708;2024-01-15T05:14:28;2;2;
55518;PMS5003;41724;51.176;-0.708;2024-01-15T05:16:56;3;2;
55518;PMS5003;41724;51.176;-0.708;2024-01-15T05:19:23;2;2;
55518;PMS5003;41724;51.176;-0.708;2024-01-15T05:21:51;4;3;
55518;PMS5003;41724;51.176;-0.708;2024-01-15T05:24:18;3;2;
55518;PMS5003;41724;51.176;-0.708;2024-01-15T05:26:45;2;2;
55518;PMS5003;41724;51.176;-0.708;2024-01-15T05:29:13;1;1;
55518;PMS5003;41724;51.176;-0.708;2024-01-15T05:31:40;2;2;
55518;PMS5003;41724;51.176;-0.708;2024-01-15T05:34:07;1;1;
55518;PMS5003;41724;51.176;-0.708;2024-01-15T05:36:35;2;2;
55518;PMS5003;41724;51.176;-0.708;2024-01-15T05:39:02;1;1;
55518;PMS5003;41724;51.176;-0.708;2024-01-15T05:41:29;1;1;
55518;PMS5003;41724;51.176;-0.708;2024-01-15T05:43:57;3;2;
55518;PMS5003;41724;51.176;-0.708;2024-01-15T05:46:24;2;1;
55518;PMS5003;41724;51.176;-0.708;2024-01-15T05:48:51;2;2;
55518;PMS5003;41724;51.176;-0.708;2024-01-15T05:51:19;2;2;
55518;PMS5003;41724;51.176;-0.708;2024-01-15T05:53:46;1;1;
55518;PMS5003;41724;51.176;-0.708;2024-01-15T05:56:14;1;1;
55518;PMS5003;41724;51.176;-0.708;2024-01-15T05:58:41;2;2;
55518;PMS5003;41724;51.176;-0.708;2024-01-15T06:01:08;3;3;
55518;PMS5003;41724;51.176;-0.708;2024-01-15T06:03:36;2;2;
55518;PMS5003;41724;51.176;-0.708;2024-01-15T06:06:03;2;1;
55518;PMS5003;41724;51.176;-0.708;2024-01-15T06:08:30;2;2;
55518;PMS5003;41724;51.176;-0.708;2024-01-15T06:10:58;2;2;
55518;PMS5003;41724;51.176;-0.708;2024-01-15T06:13:25;1;1;
55518;PMS5003;41724;51.176;-0.708;2024-01-15T06:15:52;2;2;
55518;PMS5003;41724;51.176;-0.708;2024-01-15T06:18:20;1;1;
55518;PMS5003;41724;51.176;-0.708;2024-01-15T06:20:47;2;1;
55518;PMS5003;41724;51.176;-0.708;2024-01-15T06:23:15;2;2;
55518;PMS5003;41724;51.176;-0.708;2024-01-15T06:25:42;3;3;
55518;PMS5003;41724;51.176;-0.708;2024-01-15T06:28:09;1;1;
55518;PMS5003;41724;51.176;-0.708;2024-01-15T06:30:37;2;1;
55518;PMS5003;41724;51.176;-0.708;2024-01-15T06:33:04;1;1;
55518;PMS5003;41724;51.176;-0.708;2024-01-15T06:35:32;2;2;
55518;PMS5003;41724;51.176;-0.708;2024-01-15T06:37:59;2;2;
55518;PMS5003;41724;51.176;-0.708;2024-01-15T06:40:26;3;2;
55518;PMS5003;41724;51.176;-0.708;2024-01-15T06:42:54;3;2;
55518;PMS5003;41724;51.176;-0.708;2024-01-15T06:45:21;1;1;
55518;PMS5003;41724;51.176;-0.708;2024-01-15T06:47:49;2;2;
55518;PMS5003;41724;51.176;-0.708;2024-01-15T06:50:16;3;2;
55518;PMS5003;41724;51.176;-0.708;2024-01-15T06:52:43;3;2;
55518;PMS5003;41724;51.176;-0.708;2024-01-15T06:55:11;2;2;
55518;PMS5003;41724;51.176;-0.708;2024-01-15T06:57:38;2;2;
55518;PMS5003;41724;51.176;-0.708;2024-01-15T07:00:06;2;2;
55518;PMS5003;41724;51.176;-0.708;2024-01-15T07:02:34;2;2;
55518;PMS5003;41724;51.176;-0.708;2024-01-15T07:05:01;2;2;
55518;PMS5003;41724;51.176;-0.708;2024-01-15T07:07:29;2;1;
55518;PMS5003;41724;51.176;-0.708;2024-01-15T07:09:56;3;3;
55518;PMS5003;41724;51.176;-0.708;2024-01-15T07:12:24;2;2;
55518;PMS5003;41724;51.176;-0.708;2024-01-15T07:14:51;1;1;
55518;PMS5003;41724;51.176;-0.708;2024-01-15T07:17:18;2;2;
55518;PMS5003;41724;51.176;-0.708;2024-01-15T07:19:46;1;1;
55518;PMS5003;41724;51.176;-0.708;2024-01-15T07:22:13;3;3;
55518;PMS5003;41724;51.176;-0.708;2024-01-15T07:24:41;3;3;
55518;PMS5003;41724;51.176;-0.708;2024-01-15T07:27:08;2;2;
55518;PMS5003;41724;51.176;-0.708;2024-01-15T07:29:35;2;2;
55518;PMS5003;41724;51.176;-0.708;2024-01-15T07:32:03;2;2;
55518;PMS5003;41724;51.176;-0.708;2024-01-15T07:34:32;2;2;
55518;PMS5003;41724;51.176;-0.708;2024-01-15T07:36:59;2;2;
55518;PMS5003;41724;51.176;-0.708;2024-01-15T07:39:27;2;2;
55518;PMS5003;41724;51.176;-0.708;2024-01-15T07:41:54;2;1;
55518;PMS5003;41724;51.176;-0.708;2024-01-15T07:44:21;2;2;
55518;PMS5003;41724;51.176;-0.708;2024-01-15T07:46:49;2;2;
55518;PMS5003;41724;51.176;-0.708;2024-01-15T07:49:16;1;1;
55518;PMS5003;41724;51.176;-0.708;2024-01-15T07:51:44;2;2;
55518;PMS5003;41724;51.176;-0.708;2024-01-15T07:54:11;2;2;
55518;PMS5003;41724;51.176;-0.708;2024-01-15T07:56:52;2;2;
55518;PMS5003;41724;51.176;-0.708;2024-01-15T07:59:21;2;2;
55518;PMS5003;41724;51.176;-0.708;2024-01-15T08:01:48;3;3;
55518;PMS5003;41724;51.176;-0.708;2024-01-15T08:04:15;3;2;
55518;PMS5003;41724;51.176;-0.708;2024-01-15T08:06:43;4;3;
55518;PMS5003;41724;51.176;-0.708;2024-01-15T08:09:10;3;3;
55518;PMS5003;41724;51.176;-0.708;2024-01-15T08:11:39;3;3;
55518;PMS5003;41724;51.176;-0.708;2024-01-15T08:14:06;3;2;
55518;PMS5003;41724;51.176;-0.708;2024-01-15T08:16:33;2;2;
55518;PMS5003;41724;51.176;-0.708;2024-01-15T08:19:01;3;3;
55518;PMS5003;41724;51.176;-0.708;2024-01-15T08:21:28;3;3;
55518;PMS5003;41724;51.176;-0.708;2024-01-15T08:23:56;4;4;
55518;PMS5003;41724;51.176;-0.708;2024-01-15T08:26:23;4;3;
55518;PMS5003;41724;51.176;-0.708;2024-01-15T08:28:51;3;2;
55518;PMS5003;41724;51.176;-0.708;2024-01-15T08:31:18;4;4;
55518;PMS5003;41724;51.176;-0.708;2024-01-15T08:33:45;6;4;
55518;PMS5003;41724;51.176;-0.708;2024-01-15T08:36:13;2;2;
55518;PMS5003;41724;51.176;-0.708;2024-01-15T08:38:40;4;4;
55518;PMS5003;41724;51.176;-0.708;2024-01-15T08:41:08;3;3;
55518;PMS5003;41724;51.176;-0.708;2024-01-15T08:43:35;6;4;
55518;PMS5003;41724;51.176;-0.708;2024-01-15T08:46:02;3;3;
55518;PMS5003;41724;51.176;-0.708;2024-01-15T08:48:30;3;3;
55518;PMS5003;41724;51.176;-0.708;2024-01-15T08:50:57;4;3;
55518;PMS5003;41724;51.176;-0.708;2024-01-15T08:53:25;3;3;
55518;PMS5003;41724;51.176;-0.708;2024-01-15T08:55:52;6;4;
55518;PMS5003;41724;51.176;-0.708;2024-01-15T08:58:19;4;4;
55518;PMS5003;41724;51.176;-0.708;2024-01-15T09:00:47;7;6;
55518;PMS5003;41724;51.176;-0.708;2024-01-15T09:03:14;3;3;
55518;PMS5003;41724;51.176;-0.708;2024-01-15T09:05:42;4;4;
55518;PMS5003;41724;51.176;-0.708;2024-01-15T09:08:09;2;2;
55518;PMS5003;41724;51.176;-0.708;2024-01-15T09:10:36;6;6;
55518;PMS5003;41724;51.176;-0.708;2024-01-15T09:13:04;4;3;
55518;PMS5003;41724;51.176;-0.708;2024-01-15T09:15:31;7;6;
55518;PMS5003;41724;51.176;-0.708;2024-01-15T09:17:59;3;3;
55518;PMS5003;41724;51.176;-0.708;2024-01-15T09:20:26;8;6;
55518;PMS5003;41724;51.176;-0.708;2024-01-15T09:22:53;4;4;
55518;PMS5003;41724;51.176;-0.708;2024-01-15T09:25:21;6;6;
55518;PMS5003;41724;51.176;-0.708;2024-01-15T09:27:48;4;4;
55518;PMS5003;41724;51.176;-0.708;2024-01-15T09:30:16;4;4;
55518;PMS5003;41724;51.176;-0.708;2024-01-15T09:32:43;4;4;
55518;PMS5003;41724;51.176;-0.708;2024-01-15T09:35:10;2;2;
55518;PMS5003;41724;51.176;-0.708;2024-01-15T09:37:39;6;4;
55518;PMS5003;41724;51.176;-0.708;2024-01-15T09:40:06;3;3;
55518;PMS5003;41724;51.176;-0.708;2024-01-15T09:42:38;3;3;
55518;PMS5003;41724;51.176;-0.708;2024-01-15T09:45:06;3;2;
55518;PMS5003;41724;51.176;-0.708;2024-01-15T09:47:34;4;3;
55518;PMS5003;41724;51.176;-0.708;2024-01-15T09:50:01;6;6;
55518;PMS5003;41724;51.176;-0.708;2024-01-15T09:52:29;4;4;
55518;PMS5003;41724;51.176;-0.708;2024-01-15T09:54:57;2;2;
55518;PMS5003;41724;51.176;-0.708;2024-01-15T09:57:29;3;3;
55518;PMS5003;41724;51.176;-0.708;2024-01-15T09:59:57;2;2;
55518;PMS5003;41724;51.176;-0.708;2024-01-15T10:02:28;3;3;
55518;PMS5003;41724;51.176;-0.708;2024-01-15T10:04:55;3;3;
55518;PMS5003;41724;51.176;-0.708;2024-01-15T10:07:23;2;2;
55518;PMS5003;41724;51.176;-0.708;2024-01-15T10:09:52;4;3;
55518;PMS5003;41724;51.176;-0.708;2024-01-15T10:12:19;3;3;
55518;PMS5003;41724;51.176;-0.708;2024-01-15T10:14:48;3;2;
55518;PMS5003;41724;51.176;-0.708;2024-01-15T10:17:15;2;2;
55518;PMS5003;41724;51.176;-0.708;2024-01-15T10:19:42;2;1;
55518;PMS5003;41724;51.176;-0.708;2024-01-15T10:22:11;2;1;
55518;PMS5003;41724;51.176;-0.708;2024-01-15T10:24:40;1;1;
55518;PMS5003;41724;51.176;-0.708;2024-01-15T10:27:07;1;1;
55518;PMS5003;41724;51.176;-0.708;2024-01-15T10:29:35;1;1;
55518;PMS5003;41724;51.176;-0.708;2024-01-15T10:32:03;2;1;
55518;PMS5003;41724;51.176;-0.708;2024-01-15T10:34:37;1;1;
55518;PMS5003;41724;51.176;-0.708;2024-01-15T10:37:04;0;0;
55518;PMS5003;41724;51.176;-0.708;2024-01-15T10:39:33;1;1;
55518;PMS5003;41724;51.176;-0.708;2024-01-15T10:42:02;2;1;
55518;PMS5003;41724;51.176;-0.708;2024-01-15T10:44:30;1;1;
55518;PMS5003;41724;51.176;-0.708;2024-01-15T10:46:57;1;0;
55518;PMS5003;41724;51.176;-0.708;2024-01-15T10:49:24;4;4;
55518;PMS5003;41724;51.176;-0.708;2024-01-15T10:51:52;1;1;
55518;PMS5003;41724;51.176;-0.708;2024-01-15T10:54:20;1;1;
55518;PMS5003;41724;51.176;-0.708;2024-01-15T10:56:47;1;1;
55518;PMS5003;41724;51.176;-0.708;2024-01-15T10:59:15;2;2;
55518;PMS5003;41724;51.176;-0.708;2024-01-15T11:01:44;1;1;
55518;PMS5003;41724;51.176;-0.708;2024-01-15T11:04:11;1;1;
55518;PMS5003;41724;51.176;-0.708;2024-01-15T11:06:41;1;1;
55518;PMS5003;41724;51.176;-0.708;2024-01-15T11:09:09;1;1;
55518;PMS5003;41724;51.176;-0.708;2024-01-15T11:11:44;1;1;
55518;PMS5003;41724;51.176;-0.708;2024-01-15T11:14:29;1;1;
55518;PMS5003;41724;51.176;-0.708;2024-01-15T11:17:01;0;0;
55518;PMS5003;41724;51.176;-0.708;2024-01-15T11:19:35;1;1;
55518;PMS5003;41724;51.176;-0.708;2024-01-15T11:22:02;1;1;
55518;PMS5003;41724;51.176;-0.708;2024-01-15T11:24:33;2;2;
55518;PMS5003;41724;51.176;-0.708;2024-01-15T11:27:01;1;1;
55518;PMS5003;41724;51.176;-0.708;2024-01-15T11:29:30;1;1;
55518;PMS5003;41724;51.176;-0.708;2024-01-15T11:32:00;2;2;
55518;PMS5003;41724;51.176;-0.708;2024-01-15T11:35:02;1;1;
55518;PMS5003;41724;51.176;-0.708;2024-01-15T11:40:38;2;2;
55518;PMS5003;41724;51.176;-0.708;2024-01-15T11:43:06;1;1;
55518;PMS5003;41724;51.176;-0.708;2024-01-15T11:45:33;1;1;
55518;PMS5003;41724;51.176;-0.708;2024-01-15T11:48:09;2;2;
55518;PMS5003;41724;51.176;-0.708;2024-01-15T11:50:39;2;2;
55518;PMS5003;41724;51.176;-0.708;2024-01-15T11:53:10;3;1;
55518;PMS5003;41724;51.176;-0.708;2024-01-15T11:55:43;2;2;
55518;PMS5003;41724;51.176;-0.708;2024-01-15T11:58:11;4;2;
55518;PMS5003;41724;51.176;-0.708;2024-01-15T12:00:40;3;3;
55518;PMS5003;41724;51.176;-0.708;2024-01-15T12:03:07;1;1;
55518;PMS5003;41724;51.176;-0.708;2024-01-15T12:05:36;2;2;
55518;PMS5003;41724;51.176;-0.708;2024-01-15T12:08:04;2;1;
55518;PMS5003;41724;51.176;-0.708;2024-01-15T12:10:31;3;2;
55518;PMS5003;41724;51.176;-0.708;2024-01-15T12:12:59;2;1;
55518;PMS5003;41724;51.176;-0.708;2024-01-15T12:15:27;2;2;
55518;PMS5003;41724;51.176;-0.708;2024-01-15T12:17:55;1;1;
55518;PMS5003;41724;51.176;-0.708;2024-01-15T12:20:23;0;0;
55518;PMS5003;41724;51.176;-0.708;2024-01-15T12:22:50;2;1;
55518;PMS5003;41724;51.176;-0.708;2024-01-15T12:25:18;1;1;
55518;PMS5003;41724;51.176;-0.708;2024-01-15T12:27:45;2;2;
55518;PMS5003;41724;51.176;-0.708;2024-01-15T12:30:13;2;1;
55518;PMS5003;41724;51.176;-0.708;2024-01-15T12:32:39;1;1;
55518;PMS5003;41724;51.176;-0.708;2024-01-15T12:35:07;2;2;
55518;PMS5003;41724;51.176;-0.708;2024-01-15T12:37:35;2;1;
55518;PMS5003;41724;51.176;-0.708;2024-01-15T12:40:03;4;3;
55518;PMS5003;41724;51.176;-0.708;2024-01-15T12:42:31;1;1;
55518;PMS5003;41724;51.176;-0.708;2024-01-15T12:44:58;1;1;
55518;PMS5003;41724;51.176;-0.708;2024-01-15T12:47:27;1;1;
55518;PMS5003;41724;51.176;-0.708;2024-01-15T12:49:54;1;0;
55518;PMS5003;41724;51.176;-0.708;2024-01-15T12:52:21;1;1;
55518;PMS5003;41724;51.176;-0.708;2024-01-15T12:54:48;1;1;
55518;PMS5003;41724;51.176;-0.708;2024-01-15T12:57:16;1;1;
55518;PMS5003;41724;51.176;-0.708;2024-01-15T12:59:43;2;2;
55518;PMS5003;41724;51.176;-0.708;2024-01-15T13:02:11;1;1;
55518;PMS5003;41724;51.176;-0.708;2024-01-15T13:04:38;3;3;
55518;PMS5003;41724;51.176;-0.708;2024-01-15T13:07:06;1;0;
55518;PMS5003;41724;51.176;-0.708;2024-01-15T13:09:33;2;2;
55518;PMS5003;41724;51.176;-0.708;2024-01-15T13:12:02;1;1;
55518;PMS5003;41724;51.176;-0.708;2024-01-15T13:14:30;2;2;
55518;PMS5003;41724;51.176;-0.708;2024-01-15T13:16:58;2;2;
55518;PMS5003;41724;51.176;-0.708;2024-01-15T13:19:26;1;1;
55518;PMS5003;41724;51.176;-0.708;2024-01-15T13:21:53;2;2;
55518;PMS5003;41724;51.176;-0.708;2024-01-15T13:24:21;3;2;
55518;PMS5003;41724;51.176;-0.708;2024-01-15T13:26:49;1;1;
55518;PMS5003;41724;51.176;-0.708;2024-01-15T13:29:16;4;2;
55518;PMS5003;41724;51.176;-0.708;2024-01-15T13:31:44;1;1;
55518;PMS5003;41724;51.176;-0.708;2024-01-15T13:34:11;0;0;
55518;PMS5003;41724;51.176;-0.708;2024-01-15T13:36:38;1;1;
55518;PMS5003;41724;51.176;-0.708;2024-01-15T13:39:05;1;1;
55518;PMS5003;41724;51.176;-0.708;2024-01-15T13:41:33;1;1;
55518;PMS5003;41724;51.176;-0.708;2024-01-15T13:44:00;1;1;
55518;PMS5003;41724;51.176;-0.708;2024-01-15T13:46:28;1;1;
55518;PMS5003;41724;51.176;-0.708;2024-01-15T13:48:55;2;2;
55518;PMS5003;41724;51.176;-0.708;2024-01-15T13:51:22;1;1;
55518;PMS5003;41724;51.176;-0.708;2024-01-15T13:53:50;1;1;
55518;PMS5003;41724;51.176;-0.708;2024-01-15T13:56:17;2;2;
55518;PMS5003;41724;51.176;-0.708;2024-01-15T13:58:44;2;1;
55518;PMS5003;41724;51.176;-0.708;2024-01-15T14:01:12;2;2;
55518;PMS5003;41724;51.176;-0.708;2024-01-15T14:03:39;2;1;
55518;PMS5003;41724;51.176;-0.708;2024-01-15T14:06:07;2;2;
55518;PMS5003;41724;51.176;-0.708;2024-01-15T14:08:34;1;1;
55518;PMS5003;41724;51.176;-0.708;2024-01-15T14:11:01;2;2;
55518;PMS5003;41724;51.176;-0.708;2024-01-15T14:13:28;3;2;
55518;PMS5003;41724;51.176;-0.708;2024-01-15T14:15:55;1;1;
55518;PMS5003;41724;51.176;-0.708;2024-01-15T14:18:22;3;2;
55518;PMS5003;41724;51.176;-0.708;2024-01-15T14:20:50;2;1;
55518;PMS5003;41724;51.176;-0.708;2024-01-15T14:23:16;1;1;
55518;PMS5003;41724;51.176;-0.708;2024-01-15T14:25:44;3;2;
55518;PMS5003;41724;51.176;-0.708;2024-01-15T14:28:12;1;1;
55518;PMS5003;41724;51.176;-0.708;2024-01-15T14:30:39;3;3;
55518;PMS5003;41724;51.176;-0.708;2024-01-15T14:33:06;3;2;
55518;PMS5003;41724;51.176;-0.708;2024-01-15T14:35:33;2;2;
55518;PMS5003;41724;51.176;-0.708;2024-01-15T14:38:00;2;2;
55518;PMS5003;41724;51.176;-0.708;2024-01-15T14:40:28;3;3;
55518;PMS5003;41724;51.176;-0.708;2024-01-15T14:42:55;1;1;
55518;PMS5003;41724;51.176;-0.708;2024-01-15T14:45:22;2;2;
55518;PMS5003;41724;51.176;-0.708;2024-01-15T14:47:50;1;1;
55518;PMS5003;41724;51.176;-0.708;2024-01-15T14:50:17;5;4;
55518;PMS5003;41724;51.176;-0.708;2024-01-15T14:52:45;2;1;
55518;PMS5003;41724;51.176;-0.708;2024-01-15T14:55:12;3;3;
55518;PMS5003;41724;51.176;-0.708;2024-01-15T14:57:39;2;2;
55518;PMS5003;41724;51.176;-0.708;2024-01-15T15:00:07;1;1;
55518;PMS5003;41724;51.176;-0.708;2024-01-15T15:02:35;2;1;
55518;PMS5003;41724;51.176;-0.708;2024-01-15T15:05:02;2;2;
55518;PMS5003;41724;51.176;-0.708;2024-01-15T15:07:29;1;1;
55518;PMS5003;41724;51.176;-0.708;2024-01-15T15:09:56;1;1;
55518;PMS5003;41724;51.176;-0.708;2024-01-15T15:12:24;2;1;
55518;PMS5003;41724;51.176;-0.708;2024-01-15T15:14:51;3;2;
55518;PMS5003;41724;51.176;-0.708;2024-01-15T15:17:18;1;1;
55518;PMS5003;41724;51.176;-0.708;2024-01-15T15:19:46;3;3;
55518;PMS5003;41724;51.176;-0.708;2024-01-15T15:22:13;3;2;
55518;PMS5003;41724;51.176;-0.708;2024-01-15T15:24:40;3;2;
55518;PMS5003;41724;51.176;-0.708;2024-01-15T15:27:07;5;4;
55518;PMS5003;41724;51.176;-0.708;2024-01-15T15:29:35;4;4;
55518;PMS5003;41724;51.176;-0.708;2024-01-15T15:32:03;5;5;
55518;PMS5003;41724;51.176;-0.708;2024-01-15T15:34:30;4;4;
55518;PMS5003;41724;51.176;-0.708;2024-01-15T15:36:58;4;4;
55518;PMS5003;41724;51.176;-0.708;2024-01-15T15:39:25;5;5;
55518;PMS5003;41724;51.176;-0.708;2024-01-15T15:41:53;5;5;
55518;PMS5003;41724;51.176;-0.708;2024-01-15T15:44:20;4;3;
55518;PMS5003;41724;51.176;-0.708;2024-01-15T15:46:47;5;4;
55518;PMS5003;41724;51.176;-0.708;2024-01-15T15:49:14;4;4;
55518;PMS5003;41724;51.176;-0.708;2024-01-15T15:51:42;4;4;
55518;PMS5003;41724;51.176;-0.708;2024-01-15T15:54:09;3;3;
55518;PMS5003;41724;51.176;-0.708;2024-01-15T15:56:36;4;4;
55518;PMS5003;41724;51.176;-0.708;2024-01-15T15:59:04;5;3;
55518;PMS5003;41724;51.176;-0.708;2024-01-15T16:01:31;3;3;
55518;PMS5003;41724;51.176;-0.708;2024-01-15T16:03:58;3;3;
55518;PMS5003;41724;51.176;-0.708;2024-01-15T16:06:26;6;5;
55518;PMS5003;41724;51.176;-0.708;2024-01-15T16:08:54;11;9;
55518;PMS5003;41724;51.176;-0.708;2024-01-15T16:11:21;4;4;
55518;PMS5003;41724;51.176;-0.708;2024-01-15T16:13:48;7;5;
55518;PMS5003;41724;51.176;-0.708;2024-01-15T16:16:15;4;4;
55518;PMS5003;41724;51.176;-0.708;2024-01-15T16:18:43;5;4;
55518;PMS5003;41724;51.176;-0.708;2024-01-15T16:21:10;3;3;
55518;PMS5003;41724;51.176;-0.708;2024-01-15T16:23:37;5;5;
55518;PMS5003;41724;51.176;-0.708;2024-01-15T16:26:05;5;5;
55518;PMS5003;41724;51.176;-0.708;2024-01-15T16:28:32;9;8;
55518;PMS5003;41724;51.176;-0.708;2024-01-15T16:30:59;7;5;
55518;PMS5003;41724;51.176;-0.708;2024-01-15T16:33:27;3;3;
55518;PMS5003;41724;51.176;-0.708;2024-01-15T16:35:54;3;3;
55518;PMS5003;41724;51.176;-0.708;2024-01-15T16:38:22;4;3;
55518;PMS5003;41724;51.176;-0.708;2024-01-15T16:40:49;4;3;